Time;durP1;ratioP1;P1;durP2;ratioP2;P2;SDS_P1;SDS_P2;PMS_P1;PMS_P2;Temp;Humidity;BMP_temperature;BMP_pressure;BME280_temperature;BME280_humidity;BME280_pressure;Samples;Min_cycle;Max_cycle;Signal;HPM_P1;HPM_P2
2021/09/05 00:02:04;;;;;;;8.77;7.30;;;;;;;;;;5033501;28;20116;-58
2021/09/05 00:04:32;;;;;;;9.82;8.02;;;;;;;;;;5015815;28;20037;-59
2021/09/05 00:07:01;;;;;;;10.45;7.93;;;;;;;;;;5016169;28;20029;-59
2021/09/05 00:09:27;;;;;;;11.63;8.00;;;;;;;;;;5033457;28;20094;-59
2021/09/05 00:11:53;;;;;;;8.13;7.28;;;;;;;;;;5016026;28;20469;-59
2021/09/05 00:14:19;;;;;;;8.95;7.13;;;;;;;;;;5015410;28;20061;-58
2021/09/05 00:16:45;;;;;;;8.50;7.25;;;;;;;;;;5015776;28;20030;-59
2021/09/05 00:19:11;;;;;;;9.20;7.28;;;;;;;;;;5015359;28;20450;-58
2021/09/05 00:21:37;;;;;;;9.32;7.57;;;;;;;;;;5034083;28;20021;-59
2021/09/05 00:24:03;;;;;;;12.50;7.65;;;;;;;;;;5034068;28;20044;-59
2021/09/05 00:26:31;;;;;;;9.85;7.63;;;;;;;;;;5015607;28;20021;-59
2021/09/05 00:28:57;;;;;;;12.52;9.25;;;;;;;;;;5033116;28;20029;-59
2021/09/05 00:31:23;;;;;;;14.43;8.15;;;;;;;;;;5036324;28;20028;-59
2021/09/05 00:33:49;;;;;;;9.73;7.75;;;;;;;;;;5019742;28;20125;-59
2021/09/05 00:36:15;;;;;;;9.25;7.53;;;;;;;;;;5037066;28;20053;-58
2021/09/05 00:38:41;;;;;;;11.75;8.48;;;;;;;;;;5037650;28;20092;-59
2021/09/05 00:41:07;;;;;;;8.30;7.38;;;;;;;;;;5002984;28;20053;-59
2021/09/05 00:43:51;;;;;;;8.90;7.88;;;;;;;;;;5037362;28;20025;-59
2021/09/05 00:46:17;;;;;;;11.52;8.07;;;;;;;;;;5037241;28;20100;-59
2021/09/05 00:48:43;;;;;;;10.98;7.35;;;;;;;;;;5020042;28;20061;-59
2021/09/05 00:51:09;;;;;;;10.45;8.20;;;;;;;;;;5003076;28;20371;-59
2021/09/05 00:53:35;;;;;;;7.20;6.50;;;;;;;;;;5019208;28;20021;-59
2021/09/05 00:56:01;;;;;;;9.18;7.00;;;;;;;;;;5018964;28;20032;-59
2021/09/05 00:58:28;;;;;;;9.13;6.70;;;;;;;;;;5036728;28;20088;-59
2021/09/05 01:00:54;;;;;;;8.30;7.15;;;;;;;;;;5019393;28;20026;-59
2021/09/05 01:03:20;;;;;;;8.18;6.95;;;;;;;;;;5019475;28;20040;-59
2021/09/05 01:05:46;;;;;;;10.02;8.55;;;;;;;;;;5036655;28;20091;-59
2021/09/05 01:08:15;;;;;;;8.23;7.32;;;;;;;;;;5037082;28;20025;-60
2021/09/05 01:10:43;;;;;;;10.05;8.48;;;;;;;;;;5036519;28;20371;-59
2021/09/05 01:13:09;;;;;;;10.65;8.05;;;;;;;;;;5037458;28;20357;-59
2021/09/05 01:15:35;;;;;;;8.13;7.18;;;;;;;;;;5036399;28;20030;-59
2021/09/05 01:18:01;;;;;;;9.00;6.85;;;;;;;;;;5036562;28;20037;-59
2021/09/05 01:20:27;;;;;;;10.73;7.80;;;;;;;;;;5036368;28;20026;-59
2021/09/05 01:22:53;;;;;;;9.52;7.70;;;;;;;;;;5036374;28;20084;-59
2021/09/05 01:25:20;;;;;;;10.18;8.30;;;;;;;;;;5036224;28;20026;-59
2021/09/05 01:27:46;;;;;;;7.82;6.18;;;;;;;;;;5018453;28;20040;-59
2021/09/05 01:30:12;;;;;;;9.70;7.38;;;;;;;;;;5035905;28;20454;-59
2021/09/05 01:32:38;;;;;;;11.00;8.02;;;;;;;;;;5036440;28;20029;-59
2021/09/05 01:35:04;;;;;;;10.13;7.72;;;;;;;;;;5035910;28;20116;-59
2021/09/05 01:37:33;;;;;;;9.45;7.35;;;;;;;;;;5035944;28;20188;-59
2021/09/05 01:39:59;;;;;;;7.95;7.18;;;;;;;;;;5035845;28;20033;-59
2021/09/05 01:42:25;;;;;;;9.23;7.38;;;;;;;;;;5036191;28;20055;-59
2021/09/05 01:44:51;;;;;;;8.93;7.95;;;;;;;;;;5036732;28;20391;-59
2021/09/05 01:47:17;;;;;;;12.38;9.07;;;;;;;;;;5018106;28;20026;-59
2021/09/05 01:49:43;;;;;;;9.13;7.32;;;;;;;;;;5035631;28;20025;-59
2021/09/05 01:52:09;;;;;;;10.10;7.55;;;;;;;;;;5036150;28;20355;-59
2021/09/05 01:54:35;;;;;;;8.80;7.80;;;;;;;;;;5017706;28;20537;-59
2021/09/05 01:57:01;;;;;;;12.63;7.55;;;;;;;;;;5017817;28;20064;-59
2021/09/05 01:59:27;;;;;;;9.55;8.13;;;;;;;;;;5035800;28;20482;-59
2021/09/05 02:01:53;;;;;;;10.85;8.35;;;;;;;;;;5035793;28;20463;-59
2021/09/05 02:04:19;;;;;;;8.32;6.93;;;;;;;;;;5035734;28;20065;-59
2021/09/05 02:06:45;;;;;;;8.35;7.05;;;;;;;;;;5035973;28;20041;-59
2021/09/05 02:09:11;;;;;;;13.38;8.38;;;;;;;;;;5034951;28;20026;-59
2021/09/05 02:11:37;;;;;;;10.90;8.20;;;;;;;;;;5017530;28;20045;-59
2021/09/05 02:14:04;;;;;;;9.30;7.60;;;;;;;;;;5017521;28;20494;-59
2021/09/05 02:16:30;;;;;;;9.10;7.70;;;;;;;;;;5035351;28;20032;-59
2021/09/05 02:18:56;;;;;;;10.77;8.00;;;;;;;;;;5035276;28;20129;-59
2021/09/05 02:21:22;;;;;;;9.52;8.63;;;;;;;;;;5017983;28;20098;-59
2021/09/05 02:23:48;;;;;;;15.07;8.82;;;;;;;;;;5036025;28;20029;-59
2021/09/05 02:26:14;;;;;;;12.77;8.40;;;;;;;;;;5017677;28;20476;-59
2021/09/05 02:28:40;;;;;;;8.18;7.20;;;;;;;;;;5034933;28;20045;-59
2021/09/05 02:31:06;;;;;;;12.77;8.68;;;;;;;;;;5035230;28;20033;-59
2021/09/05 02:33:32;;;;;;;11.93;8.13;;;;;;;;;;5017786;28;20076;-59
2021/09/05 02:35:58;;;;;;;10.88;8.18;;;;;;;;;;5017747;28;20021;-59
2021/09/05 02:38:24;;;;;;;9.20;8.13;;;;;;;;;;5018072;28;20056;-59
2021/09/05 02:40:50;;;;;;;9.18;7.05;;;;;;;;;;5034838;28;20026;-59
2021/09/05 02:43:16;;;;;;;10.35;8.10;;;;;;;;;;5035322;28;20033;-59
2021/09/05 02:45:42;;;;;;;9.32;7.97;;;;;;;;;;5017831;28;20021;-59
2021/09/05 02:48:08;;;;;;;11.20;8.70;;;;;;;;;;5034540;28;20533;-59
2021/09/05 02:50:34;;;;;;;10.50;7.75;;;;;;;;;;5017198;28;20033;-59
2021/09/05 02:53:00;;;;;;;9.90;8.60;;;;;;;;;;5034142;28;20349;-59
2021/09/05 02:55:28;;;;;;;9.75;8.10;;;;;;;;;;5034454;28;20041;-59
2021/09/05 02:57:54;;;;;;;10.13;8.48;;;;;;;;;;5034478;28;20412;-59
2021/09/05 03:00:20;;;;;;;8.95;7.90;;;;;;;;;;5034742;28;20026;-59
2021/09/05 03:02:47;;;;;;;12.70;10.48;;;;;;;;;;5017317;28;20025;-59
2021/09/05 03:05:13;;;;;;;11.25;8.80;;;;;;;;;;5016895;28;20033;-59
2021/09/05 03:07:39;;;;;;;9.55;8.55;;;;;;;;;;5034074;28;20026;-59
2021/09/05 03:10:06;;;;;;;10.50;7.88;;;;;;;;;;5034028;28;20022;-59
2021/09/05 03:12:32;;;;;;;9.93;7.53;;;;;;;;;;5034061;28;20045;-59
2021/09/05 03:14:58;;;;;;;11.00;8.07;;;;;;;;;;5034079;28;20043;-59
2021/09/05 03:17:24;;;;;;;17.10;9.00;;;;;;;;;;5034392;28;20112;-59
2021/09/05 03:19:50;;;;;;;9.68;7.65;;;;;;;;;;5034345;28;20115;-59
2021/09/05 03:22:16;;;;;;;12.40;8.25;;;;;;;;;;5016077;28;20467;-59
2021/09/05 03:24:42;;;;;;;10.10;8.55;;;;;;;;;;5034012;28;20036;-59
2021/09/05 03:27:08;;;;;;;10.05;9.00;;;;;;;;;;5033915;28;20029;-59
2021/09/05 03:29:34;;;;;;;11.32;7.65;;;;;;;;;;5034259;28;20379;-59
2021/09/05 03:32:00;;;;;;;8.95;8.00;;;;;;;;;;5034375;28;20079;-59
2021/09/05 03:34:29;;;;;;;11.52;8.52;;;;;;;;;;5033758;28;20034;-59
2021/09/05 03:36:55;;;;;;;9.98;8.60;;;;;;;;;;5033576;28;20026;-59
2021/09/05 03:39:21;;;;;;;10.90;9.23;;;;;;;;;;5033680;28;20383;-59
2021/09/05 03:41:47;;;;;;;9.10;8.10;;;;;;;;;;5033787;28;20024;-59
2021/09/05 03:44:13;;;;;;;11.32;8.73;;;;;;;;;;5034114;28;20029;-59
2021/09/05 03:46:39;;;;;;;11.55;8.90;;;;;;;;;;5033683;28;20116;-59
2021/09/05 03:49:05;;;;;;;10.10;8.98;;;;;;;;;;5033992;28;20041;-59
2021/09/05 03:51:32;;;;;;;9.70;7.53;;;;;;;;;;5033736;28;20066;-59
2021/09/05 03:53:58;;;;;;;10.48;8.40;;;;;;;;;;5016780;28;20033;-59
2021/09/05 03:56:24;;;;;;;10.10;8.85;;;;;;;;;;5033371;28;20436;-59
2021/09/05 03:58:50;;;;;;;10.82;8.77;;;;;;;;;;5033310;28;20043;-59
2021/09/05 04:01:16;;;;;;;10.88;8.88;;;;;;;;;;5033628;28;20061;-59
2021/09/05 04:03:42;;;;;;;9.70;8.70;;;;;;;;;;5016720;28;20068;-59
2021/09/05 04:06:08;;;;;;;11.55;8.98;;;;;;;;;;5018194;28;20040;-59
2021/09/05 04:08:45;;;;;;;10.00;8.65;;;;;;;;;;5037622;28;20025;-59
2021/09/05 04:11:11;;;;;;;10.23;9.00;;;;;;;;;;5037734;28;20057;-59
2021/09/05 04:13:37;;;;;;;11.20;9.40;;;;;;;;;;5038489;28;20444;-58
2021/09/05 04:16:04;;;;;;;12.98;9.85;;;;;;;;;;5020136;28;20124;-59
2021/09/05 04:18:30;;;;;;;11.73;9.27;;;;;;;;;;5037994;28;20057;-59
2021/09/05 04:20:56;;;;;;;11.15;9.85;;;;;;;;;;5037810;28;20029;-59
2021/09/05 04:23:22;;;;;;;12.52;9.07;;;;;;;;;;5020495;28;20083;-59
2021/09/05 04:25:48;;;;;;;12.63;8.52;;;;;;;;;;5019688;28;20022;-59
2021/09/05 04:28:14;;;;;;;12.80;9.00;;;;;;;;;;5019565;28;20017;-59
2021/09/05 04:30:40;;;;;;;12.38;9.85;;;;;;;;;;5037378;28;20447;-59
2021/09/05 04:33:06;;;;;;;10.93;9.82;;;;;;;;;;5019995;28;20025;-59
2021/09/05 04:35:32;;;;;;;12.48;8.50;;;;;;;;;;5037118;28;20032;-59
2021/09/05 04:37:58;;;;;;;20.08;9.27;;;;;;;;;;5037463;28;20057;-59
2021/09/05 04:40:25;;;;;;;11.10;9.02;;;;;;;;;;5037795;28;20308;-58
2021/09/05 04:42:51;;;;;;;11.80;8.95;;;;;;;;;;5037136;28;20032;-59
2021/09/05 04:45:17;;;;;;;10.55;9.45;;;;;;;;;;5037073;28;20077;-59
2021/09/05 04:47:43;;;;;;;9.75;8.63;;;;;;;;;;5019294;28;20033;-59
2021/09/05 04:50:09;;;;;;;10.00;8.18;;;;;;;;;;5036897;28;20037;-59
2021/09/05 04:52:35;;;;;;;9.23;8.25;;;;;;;;;;5036909;28;20033;-59
2021/09/05 04:55:01;;;;;;;12.05;8.45;;;;;;;;;;5036791;28;20083;-59
2021/09/05 04:57:27;;;;;;;9.82;8.85;;;;;;;;;;5019270;28;20025;-59
2021/09/05 04:59:53;;;;;;;10.80;9.40;;;;;;;;;;5019038;28;20028;-59
2021/09/05 05:02:19;;;;;;;11.20;8.18;;;;;;;;;;5019848;28;20030;-59
2021/09/05 05:04:45;;;;;;;10.38;8.75;;;;;;;;;;5019529;28;20382;-59
2021/09/05 05:07:11;;;;;;;9.85;8.43;;;;;;;;;;5036930;28;20033;-59
2021/09/05 05:09:43;;;;;;;10.38;9.25;;;;;;;;;;5036593;28;20029;-59
2021/09/05 05:12:09;;;;;;;11.30;7.93;;;;;;;;;;5036544;28;20045;-59
2021/09/05 05:14:35;;;;;;;12.93;8.73;;;;;;;;;;5018690;28;20030;-59
2021/09/05 05:17:04;;;;;;;9.00;8.10;;;;;;;;;;5035923;28;20089;-59
2021/09/05 05:19:33;;;;;;;10.40;8.50;;;;;;;;;;5019385;28;20333;-59
2021/09/05 05:21:59;;;;;;;9.40;8.40;;;;;;;;;;5036741;28;20037;-59
2021/09/05 05:24:25;;;;;;;9.55;8.55;;;;;;;;;;5036790;28;20034;-59
2021/09/05 05:26:51;;;;;;;9.43;8.52;;;;;;;;;;5036188;28;20108;-59
2021/09/05 05:29:17;;;;;;;10.45;8.10;;;;;;;;;;5018505;28;20112;-59
2021/09/05 05:31:43;;;;;;;9.55;7.60;;;;;;;;;;5036717;28;20029;-59
2021/09/05 05:34:09;;;;;;;9.82;7.65;;;;;;;;;;5036065;28;20041;-59
2021/09/05 05:36:35;;;;;;;10.07;7.88;;;;;;;;;;5036106;28;20033;-59
2021/09/05 05:39:01;;;;;;;8.43;7.32;;;;;;;;;;5018639;28;20030;-59
2021/09/05 05:41:27;;;;;;;9.50;7.93;;;;;;;;;;5036224;28;20025;-59
2021/09/05 05:43:53;;;;;;;7.90;7.13;;;;;;;;;;5018646;28;20036;-59
2021/09/05 05:46:19;;;;;;;8.07;5.95;;;;;;;;;;5035913;28;20025;-59
2021/09/05 05:48:45;;;;;;;8.50;7.45;;;;;;;;;;5036403;28;20363;-59
2021/09/05 05:51:11;;;;;;;7.55;6.75;;;;;;;;;;5035878;28;20029;-59
2021/09/05 05:53:37;;;;;;;8.30;6.88;;;;;;;;;;5036011;28;20025;-59
2021/09/05 05:56:07;;;;;;;8.88;6.95;;;;;;;;;;5018264;28;20030;-59
2021/09/05 05:58:33;;;;;;;9.80;6.75;;;;;;;;;;5036292;28;20060;-59
2021/09/05 06:00:59;;;;;;;10.10;7.95;;;;;;;;;;5035599;28;20026;-59
2021/09/05 06:03:25;;;;;;;7.85;7.05;;;;;;;;;;5018507;28;20060;-59
2021/09/05 06:05:55;;;;;;;9.07;7.03;;;;;;;;;;5035367;28;20426;-59
2021/09/05 06:08:21;;;;;;;7.63;6.22;;;;;;;;;;5035173;28;20498;-59
2021/09/05 06:10:47;;;;;;;8.65;7.20;;;;;;;;;;5017638;28;20036;-59
2021/09/05 06:13:13;;;;;;;7.70;6.80;;;;;;;;;;5036267;28;20479;-59
2021/09/05 06:15:39;;;;;;;10.27;7.65;;;;;;;;;;5035380;28;20068;-59
2021/09/05 06:18:05;;;;;;;9.85;7.47;;;;;;;;;;5035860;28;20096;-59
2021/09/05 06:20:35;;;;;;;8.23;6.88;;;;;;;;;;5034940;28;20509;-59
2021/09/05 06:23:01;;;;;;;7.75;6.88;;;;;;;;;;5035283;28;20026;-59
2021/09/05 06:25:27;;;;;;;8.95;7.13;;;;;;;;;;5017844;28;20034;-59
2021/09/05 06:27:53;;;;;;;10.10;6.85;;;;;;;;;;5034288;28;20048;-59
2021/09/05 06:30:19;;;;;;;8.48;7.50;;;;;;;;;;5035067;28;20029;-59
2021/09/05 06:32:45;;;;;;;8.20;7.15;;;;;;;;;;5035466;28;20029;-59
2021/09/05 06:35:11;;;;;;;10.10;7.55;;;;;;;;;;5034936;28;20026;-59
2021/09/05 06:37:37;;;;;;;12.02;8.20;;;;;;;;;;5034199;28;20037;-59
2021/09/05 06:40:03;;;;;;;8.10;7.20;;;;;;;;;;5017169;28;20475;-59
2021/09/05 06:42:29;;;;;;;9.48;7.00;;;;;;;;;;5034642;28;20032;-59
2021/09/05 06:44:55;;;;;;;6.65;6.00;;;;;;;;;;5035114;28;20026;-59
2021/09/05 06:47:21;;;;;;;9.52;7.60;;;;;;;;;;5017287;28;20380;-59
2021/09/05 06:49:47;;;;;;;8.73;6.82;;;;;;;;;;5034987;28;20029;-59
2021/09/05 06:52:13;;;;;;;11.23;7.70;;;;;;;;;;5034593;28;20025;-59
2021/09/05 06:54:41;;;;;;;8.27;6.70;;;;;;;;;;5035032;28;20029;-59
2021/09/05 06:57:07;;;;;;;8.05;6.22;;;;;;;;;;5034320;28;20415;-59
2021/09/05 06:59:33;;;;;;;6.88;6.18;;;;;;;;;;5034860;28;20033;-59
2021/09/05 07:01:59;;;;;;;8.13;6.47;;;;;;;;;;5034792;28;20555;-59
2021/09/05 07:04:25;;;;;;;8.20;6.88;;;;;;;;;;5016390;28;20123;-59
2021/09/05 07:06:51;;;;;;;8.30;6.38;;;;;;;;;;5034403;28;20017;-59
2021/09/05 07:09:20;;;;;;;14.77;6.30;;;;;;;;;;5017335;28;20053;-59
2021/09/05 07:11:46;;;;;;;9.63;7.03;;;;;;;;;;5017166;28;20103;-59
2021/09/05 07:14:15;;;;;;;9.05;6.07;;;;;;;;;;5034244;28;20121;-59
2021/09/05 07:16:42;;;;;;;8.45;7.18;;;;;;;;;;5016419;28;20050;-59
2021/09/05 07:19:08;;;;;;;14.27;6.70;;;;;;;;;;5034732;28;20087;-59
2021/09/05 07:21:34;;;;;;;7.78;6.55;;;;;;;;;;5016531;28;20053;-59
2021/09/05 07:24:00;;;;;;;7.35;6.18;;;;;;;;;;5034501;28;20067;-59
2021/09/05 07:26:26;;;;;;;7.47;6.15;;;;;;;;;;5034152;28;20025;-59
2021/09/05 07:28:52;;;;;;;8.45;6.35;;;;;;;;;;5034008;28;20071;-59
2021/09/05 07:31:18;;;;;;;7.55;6.00;;;;;;;;;;5016394;28;20371;-59
2021/09/05 07:33:44;;;;;;;9.18;6.35;;;;;;;;;;5034580;28;20029;-59
2021/09/05 07:36:10;;;;;;;5.93;5.30;;;;;;;;;;5033663;28;20383;-59
2021/09/05 07:38:36;;;;;;;8.63;6.60;;;;;;;;;;5016829;28;20022;-59
2021/09/05 07:41:01;;;;;;;7.30;5.60;;;;;;;;;;5033831;28;20025;-59
2021/09/05 07:43:28;;;;;;;6.95;5.90;;;;;;;;;;5033967;28;20021;-59
2021/09/05 07:45:54;;;;;;;8.38;5.82;;;;;;;;;;5033717;28;20462;-59
2021/09/05 07:48:20;;;;;;;7.13;5.35;;;;;;;;;;5015987;28;20033;-59
2021/09/05 07:50:46;;;;;;;7.53;5.88;;;;;;;;;;5033517;28;20125;-59
2021/09/05 07:53:12;;;;;;;9.35;5.75;;;;;;;;;;5033561;28;20021;-59
2021/09/05 07:55:38;;;;;;;6.88;5.28;;;;;;;;;;5015987;28;20076;-59
2021/09/05 07:58:04;;;;;;;8.50;6.32;;;;;;;;;;5015972;28;20026;-59
2021/09/05 08:00:30;;;;;;;7.80;6.22;;;;;;;;;;5033699;28;20068;-59
2021/09/05 08:02:55;;;;;;;9.05;6.25;;;;;;;;;;5034167;28;20116;-59
2021/09/05 08:05:21;;;;;;;7.60;5.43;;;;;;;;;;5015989;28;20124;-59
2021/09/05 08:07:47;;;;;;;5.68;4.97;;;;;;;;;;5015969;28;20120;-59
2021/09/05 08:10:13;;;;;;;6.22;5.30;;;;;;;;;;5034126;28;20053;-59
2021/09/05 08:12:40;;;;;;;7.00;5.13;;;;;;;;;;5033506;28;20128;-59
2021/09/05 08:15:06;;;;;;;8.90;5.20;;;;;;;;;;5033468;28;20356;-59
2021/09/05 08:17:32;;;;;;;6.82;5.40;;;;;;;;;;5015860;28;20030;-59
2021/09/05 08:19:58;;;;;;;8.15;6.28;;;;;;;;;;5015893;28;20025;-59
2021/09/05 08:22:24;;;;;;;7.60;5.45;;;;;;;;;;5034082;28;20070;-59
2021/09/05 08:24:50;;;;;;;7.28;5.90;;;;;;;;;;5033497;28;20021;-59
2021/09/05 08:27:16;;;;;;;9.23;6.30;;;;;;;;;;5033096;28;20049;-59
2021/09/05 08:29:45;;;;;;;5.93;5.35;;;;;;;;;;5015560;28;20403;-59
2021/09/05 08:32:11;;;;;;;8.75;5.40;;;;;;;;;;5033711;28;20017;-59
2021/09/05 08:34:37;;;;;;;6.72;5.80;;;;;;;;;;5015708;28;20460;-59
2021/09/05 08:37:04;;;;;;;6.53;5.82;;;;;;;;;;5033309;28;20037;-59
2021/09/05 08:39:30;;;;;;;6.80;5.47;;;;;;;;;;5033162;28;20028;-59
2021/09/05 08:41:57;;;;;;;7.22;5.70;;;;;;;;;;5033842;28;20030;-59
2021/09/05 08:44:23;;;;;;;6.15;5.45;;;;;;;;;;5033307;28;20060;-59
2021/09/05 08:46:51;;;;;;;6.00;4.97;;;;;;;;;;5033856;28;20049;-59
2021/09/05 08:49:18;;;;;;;7.15;5.63;;;;;;;;;;5033150;28;20025;-59
2021/09/05 08:51:44;;;;;;;9.00;5.75;;;;;;;;;;5035022;28;20026;-59
2021/09/05 08:54:10;;;;;;;8.30;5.82;;;;;;;;;;5036533;28;20538;-59
2021/09/05 08:56:36;;;;;;;7.38;5.63;;;;;;;;;;5037204;28;20053;-59
2021/09/05 08:59:02;;;;;;;6.43;5.18;;;;;;;;;;5036675;28;20379;-59
2021/09/05 09:01:29;;;;;;;6.85;6.07;;;;;;;;;;5036872;28;20030;-59
2021/09/05 09:04:10;;;;;;;6.50;5.45;;;;;;;;;;5036989;28;20053;-59
2021/09/05 09:06:41;;;;;;;7.22;4.80;;;;;;;;;;5036421;28;20029;-59
2021/09/05 09:09:07;;;;;;;5.68;4.40;;;;;;;;;;5036661;28;20108;-59
2021/09/05 09:12:06;;;;;;;7.00;4.50;;;;;;;;;;5036435;28;20018;-59
2021/09/05 09:14:42;;;;;;;7.80;4.95;;;;;;;;;;4992567;28;20034;-59
2021/09/05 09:17:09;;;;;;;5.68;4.05;;;;;;;;;;5036943;28;20040;-59
2021/09/05 09:19:36;;;;;;;5.78;4.82;;;;;;;;;;5018959;28;20032;-59
2021/09/05 09:22:04;;;;;;;5.75;5.03;;;;;;;;;;5036726;28;20356;-59
2021/09/05 09:24:39;;;;;;;5.25;4.55;;;;;;;;;;5036430;28;20033;-59
2021/09/05 09:27:06;;;;;;;6.47;5.22;;;;;;;;;;5019083;28;20564;-59
2021/09/05 09:29:33;;;;;;;9.30;4.93;;;;;;;;;;5018559;28;20105;-59
2021/09/05 09:32:04;;;;;;;5.95;4.68;;;;;;;;;;5036819;28;20128;-59
2021/09/05 09:34:37;;;;;;;5.43;3.88;;;;;;;;;;5036578;28;20025;-59
2021/09/05 09:37:03;;;;;;;4.40;3.45;;;;;;;;;;5018169;28;20033;-59
2021/09/05 09:39:29;;;;;;;5.07;4.07;;;;;;;;;;5036416;28;20025;-59
2021/09/05 09:41:55;;;;;;;6.97;4.38;;;;;;;;;;5036235;28;20077;-59
2021/09/05 09:44:27;;;;;;;6.38;4.15;;;;;;;;;;5036383;28;20451;-59
2021/09/05 09:46:53;;;;;;;4.30;3.58;;;;;;;;;;5035868;28;20076;-59
2021/09/05 09:49:19;;;;;;;4.63;4.13;;;;;;;;;;5035910;28;20025;-59
2021/09/05 09:51:47;;;;;;;5.03;4.15;;;;;;;;;;5035484;28;20411;-59
2021/09/05 09:54:13;;;;;;;4.47;4.00;;;;;;;;;;5036360;28;20061;-59
2021/09/05 09:56:39;;;;;;;4.38;3.47;;;;;;;;;;5035813;28;20068;-59
2021/09/05 09:59:07;;;;;;;5.57;3.83;;;;;;;;;;5017984;28;20460;-59
2021/09/05 10:01:33;;;;;;;5.95;4.25;;;;;;;;;;5017907;28;20522;-60
2021/09/05 10:04:01;;;;;;;4.50;3.92;;;;;;;;;;5035022;28;20021;-59
2021/09/05 10:06:34;;;;;;;5.15;3.70;;;;;;;;;;5035862;28;20029;-59
2021/09/05 10:09:04;;;;;;;5.85;4.60;;;;;;;;;;5036140;28;20036;-60
2021/09/05 10:11:30;;;;;;;5.78;3.25;;;;;;;;;;5035183;28;20079;-59
2021/09/05 10:13:58;;;;;;;6.00;4.22;;;;;;;;;;5035998;28;20018;-60
2021/09/05 10:16:24;;;;;;;5.28;3.80;;;;;;;;;;5035321;28;20171;-60
2021/09/05 10:18:52;;;;;;;5.75;4.15;;;;;;;;;;5035319;28;20022;-59
2021/09/05 10:21:19;;;;;;;4.78;3.65;;;;;;;;;;5035378;28;20021;-59
2021/09/05 10:23:46;;;;;;;5.50;4.15;;;;;;;;;;5035338;28;20033;-59
2021/09/05 10:26:14;;;;;;;7.22;3.85;;;;;;;;;;5017504;28;20035;-59
2021/09/05 10:28:40;;;;;;;5.35;3.92;;;;;;;;;;5035522;28;20032;-59
2021/09/05 10:31:07;;;;;;;5.65;4.00;;;;;;;;;;5035300;28;20084;-60
2021/09/05 10:33:34;;;;;;;5.97;4.53;;;;;;;;;;5035130;28;20368;-60
2021/09/05 10:36:10;;;;;;;6.43;4.38;;;;;;;;;;5035030;28;20061;-60
2021/09/05 10:38:37;;;;;;;7.75;4.20;;;;;;;;;;5034947;28;20036;-60
2021/09/05 10:41:07;;;;;;;4.57;3.15;;;;;;;;;;5035426;28;20025;-59
2021/09/05 10:43:48;;;;;;;6.18;4.00;;;;;;;;;;5035609;28;20097;-59
2021/09/05 10:46:16;;;;;;;5.03;3.63;;;;;;;;;;5017286;28;20076;-60
2021/09/05 10:48:45;;;;;;;4.88;3.40;;;;;;;;;;5034759;28;20538;-59
2021/09/05 10:51:15;;;;;;;5.07;3.15;;;;;;;;;;5017586;28;20026;-59
2021/09/05 10:53:52;;;;;;;4.50;3.55;;;;;;;;;;5034672;28;20025;-60
2021/09/05 10:56:20;;;;;;;4.20;3.30;;;;;;;;;;5034948;28;20136;-60
2021/09/05 10:58:47;;;;;;;4.95;3.55;;;;;;;;;;5035003;28;20021;-60
2021/09/05 11:01:23;;;;;;;4.88;3.78;;;;;;;;;;5034504;28;20056;-59
2021/09/05 11:04:08;;;;;;;4.93;3.65;;;;;;;;;;5034621;28;20583;-60
2021/09/05 11:06:34;;;;;;;4.80;3.83;;;;;;;;;;5034414;28;20029;-60
2021/09/05 11:09:21;;;;;;;5.95;3.92;;;;;;;;;;5034662;28;20025;-60
2021/09/05 11:12:08;;;;;;;5.10;3.65;;;;;;;;;;5034049;28;21215;-60
2021/09/05 11:14:37;;;;;;;4.90;3.65;;;;;;;;;;5020786;28;20037;-59
2021/09/05 11:17:09;;;;;;;8.45;2.80;;;;;;;;;;5034540;28;20369;-60
2021/09/05 11:19:36;;;;;;;7.07;4.25;;;;;;;;;;5034111;28;20025;-60
2021/09/05 11:22:05;;;;;;;6.22;4.03;;;;;;;;;;5034656;28;20033;-60
2021/09/05 11:24:31;;;;;;;3.47;2.65;;;;;;;;;;5034240;28;20051;-60
2021/09/05 11:26:58;;;;;;;3.63;3.13;;;;;;;;;;5034144;28;20447;-60
2021/09/05 11:29:25;;;;;;;4.60;3.20;;;;;;;;;;5016250;28;20022;-60
2021/09/05 11:31:51;;;;;;;3.75;2.63;;;;;;;;;;5033949;28;20083;-59
2021/09/05 11:34:17;;;;;;;4.28;3.03;;;;;;;;;;5034192;28;20025;-59
2021/09/05 11:36:43;;;;;;;3.85;3.05;;;;;;;;;;5032969;28;20036;-59
2021/09/05 11:39:09;;;;;;;4.20;3.17;;;;;;;;;;5034549;28;20080;-59
2021/09/05 11:41:35;;;;;;;3.72;2.20;;;;;;;;;;5033762;28;20033;-59
2021/09/05 11:44:01;;;;;;;4.93;2.95;;;;;;;;;;5034342;28;20446;-59
2021/09/05 11:46:27;;;;;;;3.90;3.38;;;;;;;;;;5033817;28;20021;-58
2021/09/05 11:48:57;;;;;;;4.68;2.80;;;;;;;;;;5033873;28;20021;-58
2021/09/05 11:51:23;;;;;;;5.88;3.38;;;;;;;;;;5033733;28;20055;-58
2021/09/05 11:54:17;;;;;;;4.82;2.45;;;;;;;;;;5033737;28;20026;-58
2021/09/05 11:56:43;;;;;;;4.25;2.85;;;;;;;;;;5031754;28;20418;-58
2021/09/05 11:59:13;;;;;;;4.75;3.10;;;;;;;;;;5034145;28;20105;-59
2021/09/05 12:01:39;;;;;;;4.55;2.97;;;;;;;;;;5033717;28;20096;-58
2021/09/05 12:04:06;;;;;;;3.83;2.83;;;;;;;;;;5033627;28;20497;-59
2021/09/05 12:06:32;;;;;;;4.50;2.78;;;;;;;;;;5033557;28;20064;-59
2021/09/05 12:08:58;;;;;;;4.07;3.30;;;;;;;;;;5033617;28;20463;-59
2021/09/05 12:11:24;;;;;;;5.05;2.88;;;;;;;;;;5034144;28;20062;-59
2021/09/05 12:13:52;;;;;;;3.60;2.83;;;;;;;;;;5015964;28;20123;-60
2021/09/05 12:16:22;;;;;;;4.85;3.22;;;;;;;;;;5033849;28;20486;-58
2021/09/05 12:19:07;;;;;;;4.88;3.58;;;;;;;;;;5033774;28;20021;-59
2021/09/05 12:21:43;;;;;;;3.30;2.60;;;;;;;;;;5033472;28;20032;-58
2021/09/05 12:24:16;;;;;;;8.27;3.63;;;;;;;;;;5033473;28;20017;-58
2021/09/05 12:26:42;;;;;;;5.20;2.70;;;;;;;;;;5034921;28;20018;-58
2021/09/05 12:29:09;;;;;;;5.40;3.17;;;;;;;;;;5037312;28;20028;-58
2021/09/05 12:31:40;;;;;;;5.80;3.40;;;;;;;;;;5037858;28;20021;-58
2021/09/05 12:34:06;;;;;;;5.03;3.05;;;;;;;;;;5036905;28;20026;-58
2021/09/05 12:36:32;;;;;;;4.22;2.50;;;;;;;;;;5037489;28;20036;-59
2021/09/05 12:38:59;;;;;;;8.63;3.10;;;;;;;;;;5037520;28;20026;-58
2021/09/05 12:41:26;;;;;;;3.33;2.42;;;;;;;;;;5037222;28;20071;-58
2021/09/05 12:43:57;;;;;;;4.00;3.17;;;;;;;;;;5037162;28;20032;-59
2021/09/05 12:46:25;;;;;;;3.90;3.10;;;;;;;;;;5037310;28;20030;-59
2021/09/05 12:48:51;;;;;;;3.88;2.70;;;;;;;;;;5037590;28;20017;-58
2021/09/05 12:51:19;;;;;;;5.07;2.95;;;;;;;;;;5036732;28;20514;-59
2021/09/05 12:53:51;;;;;;;4.25;2.78;;;;;;;;;;5037374;28;20363;-59
2021/09/05 12:56:17;;;;;;;5.35;3.08;;;;;;;;;;5037175;28;20029;-59
2021/09/05 12:58:43;;;;;;;3.92;2.65;;;;;;;;;;5036900;28;20021;-60
2021/09/05 13:01:19;;;;;;;3.20;2.65;;;;;;;;;;5037101;28;20060;-59
2021/09/05 13:03:45;;;;;;;4.00;2.83;;;;;;;;;;5037387;28;20392;-59
2021/09/05 13:06:11;;;;;;;6.18;3.28;;;;;;;;;;5019773;28;20117;-59
2021/09/05 13:08:37;;;;;;;4.43;3.17;;;;;;;;;;5036338;28;20100;-59
2021/09/05 13:11:03;;;;;;;3.67;2.95;;;;;;;;;;5036996;28;20025;-60
2021/09/05 13:13:29;;;;;;;4.13;3.08;;;;;;;;;;5036933;28;20049;-60
2021/09/05 13:15:55;;;;;;;4.50;2.80;;;;;;;;;;5037063;28;20047;-60
2021/09/05 13:18:21;;;;;;;3.15;2.35;;;;;;;;;;5036790;28;20375;-60
2021/09/05 13:20:47;;;;;;;5.10;3.83;;;;;;;;;;5036482;28;20017;-60
2021/09/05 13:23:13;;;;;;;4.07;3.50;;;;;;;;;;5036479;28;20025;-59
2021/09/05 13:25:39;;;;;;;4.30;3.65;;;;;;;;;;5036372;28;20379;-59
2021/09/05 13:28:05;;;;;;;5.20;3.03;;;;;;;;;;5036409;28;20426;-59
2021/09/05 13:30:31;;;;;;;6.55;3.30;;;;;;;;;;5035854;28;20426;-59
2021/09/05 13:32:57;;;;;;;7.82;3.13;;;;;;;;;;5036580;28;20076;-59
2021/09/05 13:35:23;;;;;;;4.00;3.33;;;;;;;;;;5018540;28;20029;-59
2021/09/05 13:37:49;;;;;;;3.78;2.45;;;;;;;;;;5036123;28;20109;-60
2021/09/05 13:40:15;;;;;;;4.65;3.33;;;;;;;;;;5036072;28;20113;-59
2021/09/05 13:42:41;;;;;;;3.10;2.53;;;;;;;;;;5036233;28;20139;-59
2021/09/05 13:45:07;;;;;;;3.40;2.40;;;;;;;;;;5036375;28;20056;-59
2021/09/05 13:47:33;;;;;;;3.55;2.58;;;;;;;;;;5036023;28;20032;-59
2021/09/05 13:50:02;;;;;;;3.58;2.50;;;;;;;;;;5036451;28;20125;-59
2021/09/05 13:52:28;;;;;;;3.83;2.80;;;;;;;;;;5036693;28;20022;-59
2021/09/05 13:54:54;;;;;;;3.58;2.65;;;;;;;;;;5035676;28;20036;-59
2021/09/05 13:57:20;;;;;;;4.38;2.88;;;;;;;;;;5035667;28;20059;-59
2021/09/05 13:59:46;;;;;;;5.72;3.38;;;;;;;;;;5036353;28;20029;-59
2021/09/05 14:02:12;;;;;;;4.68;2.55;;;;;;;;;;5035348;28;20025;-60
2021/09/05 14:04:38;;;;;;;4.18;3.00;;;;;;;;;;5035686;28;20037;-59
2021/09/05 14:07:07;;;;;;;4.88;3.15;;;;;;;;;;5035864;28;20027;-59
2021/09/05 14:09:33;;;;;;;3.58;2.50;;;;;;;;;;5036148;28;20115;-60
2021/09/05 14:11:59;;;;;;;4.15;2.38;;;;;;;;;;5035463;28;20045;-60
2021/09/05 14:14:25;;;;;;;4.30;3.03;;;;;;;;;;5035651;28;20029;-59
2021/09/05 14:16:53;;;;;;;4.30;2.78;;;;;;;;;;5035473;28;20108;-60
2021/09/05 14:19:19;;;;;;;4.40;2.97;;;;;;;;;;5035361;28;20053;-60
2021/09/05 14:21:45;;;;;;;4.53;3.10;;;;;;;;;;5035747;28;20084;-59
2021/09/05 14:24:12;;;;;;;3.33;2.70;;;;;;;;;;5035360;28;20030;-59
2021/09/05 14:26:38;;;;;;;3.58;2.67;;;;;;;;;;5035847;28;20018;-59
2021/09/05 14:29:10;;;;;;;4.38;2.38;;;;;;;;;;5035126;28;20026;-60
2021/09/05 14:31:51;;;;;;;4.18;2.70;;;;;;;;;;5035102;28;20021;-59
2021/09/05 14:55:57;;;;;;;4.10;2.50;;;;;;;;;;5034678;28;20116;-59
2021/09/05 14:58:24;;;;;;;3.65;2.65;;;;;;;;;;5034706;28;20128;-59
2021/09/05 15:01:14;;;;;;;4.28;2.63;;;;;;;;;;5034512;28;20104;-59
2021/09/05 15:11:22;;;;;;;5.43;2.70;;;;;;;;;;5034854;28;20033;-59